sensor_id;sensor_type;location;lat;lon;timestamp;temperature;humidity
3562;DHT22;1795;52.074;4.754;2023-03-08T00:00:40;1.40;99.90
3562;DHT22;1795;52.074;4.754;2023-03-08T00:03:12;1.40;99.90
3562;DHT22;1795;52.074;4.754;2023-03-08T00:05:40;1.40;99.90
3562;DHT22;1795;52.074;4.754;2023-03-08T00:08:08;1.40;99.90
3562;DHT22;1795;52.074;4.754;2023-03-08T00:10:36;1.40;99.90
3562;DHT22;1795;52.074;4.754;2023-03-08T00:13:04;1.40;99.90
3562;DHT22;1795;52.074;4.754;2023-03-08T00:15:32;1.30;99.90
3562;DHT22;1795;52.074;4.754;2023-03-08T00:18:00;1.30;99.90
3562;DHT22;1795;52.074;4.754;2023-03-08T00:20:32;1.30;99.90
3562;DHT22;1795;52.074;4.754;2023-03-08T00:23:00;1.30;99.90
3562;DHT22;1795;52.074;4.754;2023-03-08T00:25:28;1.30;99.90
3562;DHT22;1795;52.074;4.754;2023-03-08T00:27:56;1.30;99.90
3562;DHT22;1795;52.074;4.754;2023-03-08T00:30:24;1.20;99.90
3562;DHT22;1795;52.074;4.754;2023-03-08T00:32:52;1.20;99.90
3562;DHT22;1795;52.074;4.754;2023-03-08T00:35:20;1.20;99.90
3562;DHT22;1795;52.074;4.754;2023-03-08T00:37:49;1.20;99.90
3562;DHT22;1795;52.074;4.754;2023-03-08T00:40:17;1.20;99.90
3562;DHT22;1795;52.074;4.754;2023-03-08T00:42:45;1.20;99.90
3562;DHT22;1795;52.074;4.754;2023-03-08T00:45:13;1.20;99.90
3562;DHT22;1795;52.074;4.754;2023-03-08T00:47:41;1.20;99.90
3562;DHT22;1795;52.074;4.754;2023-03-08T00:50:10;1.10;99.90
3562;DHT22;1795;52.074;4.754;2023-03-08T00:52:38;1.10;99.90
3562;DHT22;1795;52.074;4.754;2023-03-08T00:55:08;1.10;99.90
3562;DHT22;1795;52.074;4.754;2023-03-08T00:57:37;1.10;99.90
3562;DHT22;1795;52.074;4.754;2023-03-08T01:00:06;1.10;99.90
3562;DHT22;1795;52.074;4.754;2023-03-08T01:02:36;1.10;99.90
3562;DHT22;1795;52.074;4.754;2023-03-08T01:05:08;1.10;99.90
3562;DHT22;1795;52.074;4.754;2023-03-08T01:07:36;1.10;99.90
3562;DHT22;1795;52.074;4.754;2023-03-08T01:10:05;1.00;99.90
3562;DHT22;1795;52.074;4.754;2023-03-08T01:12:35;1.00;99.90
3562;DHT22;1795;52.074;4.754;2023-03-08T01:15:04;1.00;99.90
3562;DHT22;1795;52.074;4.754;2023-03-08T01:17:32;1.00;99.90
3562;DHT22;1795;52.074;4.754;2023-03-08T01:20:00;1.00;99.90
3562;DHT22;1795;52.074;4.754;2023-03-08T01:22:28;1.00;99.90
3562;DHT22;1795;52.074;4.754;2023-03-08T01:24:57;1.00;99.90
3562;DHT22;1795;52.074;4.754;2023-03-08T01:27:25;1.00;99.90
3562;DHT22;1795;52.074;4.754;2023-03-08T01:29:54;1.00;99.90
3562;DHT22;1795;52.074;4.754;2023-03-08T01:32:22;1.00;99.90
3562;DHT22;1795;52.074;4.754;2023-03-08T01:34:50;0.90;99.90
3562;DHT22;1795;52.074;4.754;2023-03-08T01:37:18;0.90;99.90
3562;DHT22;1795;52.074;4.754;2023-03-08T01:39:46;0.90;99.90
3562;DHT22;1795;52.074;4.754;2023-03-08T01:42:14;0.90;99.90
3562;DHT22;1795;52.074;4.754;2023-03-08T01:44:54;0.90;99.90
3562;DHT22;1795;52.074;4.754;2023-03-08T01:47:24;0.90;99.90
3562;DHT22;1795;52.074;4.754;2023-03-08T01:49:53;0.90;99.90
3562;DHT22;1795;52.074;4.754;2023-03-08T01:52:26;0.90;99.90
3562;DHT22;1795;52.074;4.754;2023-03-08T01:54:58;0.90;99.90
3562;DHT22;1795;52.074;4.754;2023-03-08T01:57:29;0.80;99.90
3562;DHT22;1795;52.074;4.754;2023-03-08T02:00:04;0.80;99.90
3562;DHT22;1795;52.074;4.754;2023-03-08T02:02:39;0.80;99.90
3562;DHT22;1795;52.074;4.754;2023-03-08T02:05:09;0.80;99.90
3562;DHT22;1795;52.074;4.754;2023-03-08T02:07:37;0.80;99.90
3562;DHT22;1795;52.074;4.754;2023-03-08T02:10:06;0.80;99.90
3562;DHT22;1795;52.074;4.754;2023-03-08T02:12:35;0.80;99.90
3562;DHT22;1795;52.074;4.754;2023-03-08T02:15:09;0.80;99.90
3562;DHT22;1795;52.074;4.754;2023-03-08T02:17:38;0.80;99.90
3562;DHT22;1795;52.074;4.754;2023-03-08T02:20:11;0.70;99.90
3562;DHT22;1795;52.074;4.754;2023-03-08T02:22:42;0.70;99.90
3562;DHT22;1795;52.074;4.754;2023-03-08T02:25:13;0.70;99.90
3562;DHT22;1795;52.074;4.754;2023-03-08T02:27:41;0.70;99.90
3562;DHT22;1795;52.074;4.754;2023-03-08T02:30:11;0.70;99.90
3562;DHT22;1795;52.074;4.754;2023-03-08T02:32:39;0.70;99.90
3562;DHT22;1795;52.074;4.754;2023-03-08T02:35:08;0.70;99.90
3562;DHT22;1795;52.074;4.754;2023-03-08T02:37:36;0.60;99.90
3562;DHT22;1795;52.074;4.754;2023-03-08T02:40:07;0.70;99.90
3562;DHT22;1795;52.074;4.754;2023-03-08T02:42:35;0.70;99.90
3562;DHT22;1795;52.074;4.754;2023-03-08T02:45:04;0.70;99.90
3562;DHT22;1795;52.074;4.754;2023-03-08T02:47:32;0.70;99.90
3562;DHT22;1795;52.074;4.754;2023-03-08T02:50:00;0.60;99.90
3562;DHT22;1795;52.074;4.754;2023-03-08T02:52:28;0.60;99.90
3562;DHT22;1795;52.074;4.754;2023-03-08T02:54:56;0.60;99.90
3562;DHT22;1795;52.074;4.754;2023-03-08T02:57:26;0.60;99.90
3562;DHT22;1795;52.074;4.754;2023-03-08T02:59:54;0.60;99.90
3562;DHT22;1795;52.074;4.754;2023-03-08T03:02:22;0.60;99.90
3562;DHT22;1795;52.074;4.754;2023-03-08T03:04:50;0.60;99.90
3562;DHT22;1795;52.074;4.754;2023-03-08T03:07:18;0.60;99.90
3562;DHT22;1795;52.074;4.754;2023-03-08T03:09:45;0.60;99.90
3562;DHT22;1795;52.074;4.754;2023-03-08T03:12:13;0.60;99.90
3562;DHT22;1795;52.074;4.754;2023-03-08T03:14:43;0.60;99.90
3562;DHT22;1795;52.074;4.754;2023-03-08T03:17:12;0.60;99.90
3562;DHT22;1795;52.074;4.754;2023-03-08T03:19:40;0.60;99.90
3562;DHT22;1795;52.074;4.754;2023-03-08T03:22:07;0.50;99.90
3562;DHT22;1795;52.074;4.754;2023-03-08T03:24:35;0.50;99.90
3562;DHT22;1795;52.074;4.754;2023-03-08T03:27:04;0.50;99.90
3562;DHT22;1795;52.074;4.754;2023-03-08T03:29:32;0.50;99.90
3562;DHT22;1795;52.074;4.754;2023-03-08T03:32:01;0.50;99.90
3562;DHT22;1795;52.074;4.754;2023-03-08T03:34:29;0.50;99.90
3562;DHT22;1795;52.074;4.754;2023-03-08T03:36:57;0.50;99.90
3562;DHT22;1795;52.074;4.754;2023-03-08T03:39:25;0.50;99.90
3562;DHT22;1795;52.074;4.754;2023-03-08T03:41:56;0.50;99.90
3562;DHT22;1795;52.074;4.754;2023-03-08T03:44:24;0.50;99.90
3562;DHT22;1795;52.074;4.754;2023-03-08T03:46:52;0.50;99.90
3562;DHT22;1795;52.074;4.754;2023-03-08T03:49:22;0.50;99.90
3562;DHT22;1795;52.074;4.754;2023-03-08T03:51:49;0.50;99.90
3562;DHT22;1795;52.074;4.754;2023-03-08T03:54:17;0.50;99.90
3562;DHT22;1795;52.074;4.754;2023-03-08T03:56:45;0.50;99.90
3562;DHT22;1795;52.074;4.754;2023-03-08T03:59:13;0.50;99.90
3562;DHT22;1795;52.074;4.754;2023-03-08T04:01:42;0.50;99.90
3562;DHT22;1795;52.074;4.754;2023-03-08T04:04:10;0.50;99.90
3562;DHT22;1795;52.074;4.754;2023-03-08T04:06:39;0.50;99.90
3562;DHT22;1795;52.074;4.754;2023-03-08T04:09:12;0.50;99.90
3562;DHT22;1795;52.074;4.754;2023-03-08T04:11:40;0.50;99.90
3562;DHT22;1795;52.074;4.754;2023-03-08T04:14:09;0.50;99.90
3562;DHT22;1795;52.074;4.754;2023-03-08T04:16:38;0.50;99.90
3562;DHT22;1795;52.074;4.754;2023-03-08T04:19:09;0.50;99.90
3562;DHT22;1795;52.074;4.754;2023-03-08T04:21:39;0.50;99.90
3562;DHT22;1795;52.074;4.754;2023-03-08T04:24:07;0.50;99.90
3562;DHT22;1795;52.074;4.754;2023-03-08T04:26:35;0.50;99.90
3562;DHT22;1795;52.074;4.754;2023-03-08T04:29:04;0.50;99.90
3562;DHT22;1795;52.074;4.754;2023-03-08T04:31:33;0.50;99.90
3562;DHT22;1795;52.074;4.754;2023-03-08T04:34:03;0.50;99.90
3562;DHT22;1795;52.074;4.754;2023-03-08T04:36:32;0.50;99.90
3562;DHT22;1795;52.074;4.754;2023-03-08T04:39:01;0.50;99.90
3562;DHT22;1795;52.074;4.754;2023-03-08T04:41:29;0.50;99.90
3562;DHT22;1795;52.074;4.754;2023-03-08T04:43:57;0.50;99.90
3562;DHT22;1795;52.074;4.754;2023-03-08T04:46:26;0.50;99.90
3562;DHT22;1795;52.074;4.754;2023-03-08T04:48:55;0.50;99.90
3562;DHT22;1795;52.074;4.754;2023-03-08T04:51:24;0.50;99.90
3562;DHT22;1795;52.074;4.754;2023-03-08T04:53:53;0.50;99.90
3562;DHT22;1795;52.074;4.754;2023-03-08T04:56:22;0.50;99.90
3562;DHT22;1795;52.074;4.754;2023-03-08T04:58:50;0.50;99.90
3562;DHT22;1795;52.074;4.754;2023-03-08T05:01:19;0.50;99.90
3562;DHT22;1795;52.074;4.754;2023-03-08T05:03:48;0.50;99.90
3562;DHT22;1795;52.074;4.754;2023-03-08T05:06:17;0.50;99.90
3562;DHT22;1795;52.074;4.754;2023-03-08T05:08:45;0.60;99.90
3562;DHT22;1795;52.074;4.754;2023-03-08T05:11:17;0.60;99.90
3562;DHT22;1795;52.074;4.754;2023-03-08T05:13:47;0.60;99.90
3562;DHT22;1795;52.074;4.754;2023-03-08T05:16:15;0.60;99.90
3562;DHT22;1795;52.074;4.754;2023-03-08T05:18:43;0.60;99.90
3562;DHT22;1795;52.074;4.754;2023-03-08T05:21:14;0.60;99.90
3562;DHT22;1795;52.074;4.754;2023-03-08T05:23:42;0.60;99.90
3562;DHT22;1795;52.074;4.754;2023-03-08T05:26:13;0.60;99.90
3562;DHT22;1795;52.074;4.754;2023-03-08T05:28:42;0.60;99.90
3562;DHT22;1795;52.074;4.754;2023-03-08T05:31:13;0.70;99.90
3562;DHT22;1795;52.074;4.754;2023-03-08T05:33:43;0.70;99.90
3562;DHT22;1795;52.074;4.754;2023-03-08T05:36:13;0.70;99.90
3562;DHT22;1795;52.074;4.754;2023-03-08T05:38:41;0.70;99.90
3562;DHT22;1795;52.074;4.754;2023-03-08T05:41:12;0.60;99.90
3562;DHT22;1795;52.074;4.754;2023-03-08T05:43:41;0.70;99.90
3562;DHT22;1795;52.074;4.754;2023-03-08T05:46:12;0.70;99.90
3562;DHT22;1795;52.074;4.754;2023-03-08T05:48:41;0.70;99.90
3562;DHT22;1795;52.074;4.754;2023-03-08T05:51:11;0.70;99.90
3562;DHT22;1795;52.074;4.754;2023-03-08T05:53:39;0.70;99.90
3562;DHT22;1795;52.074;4.754;2023-03-08T05:56:09;0.70;99.90
3562;DHT22;1795;52.074;4.754;2023-03-08T05:58:37;0.70;99.90
3562;DHT22;1795;52.074;4.754;2023-03-08T06:01:12;0.80;99.90
3562;DHT22;1795;52.074;4.754;2023-03-08T06:03:42;0.80;99.90
3562;DHT22;1795;52.074;4.754;2023-03-08T06:06:10;0.80;99.90
3562;DHT22;1795;52.074;4.754;2023-03-08T06:08:39;0.80;99.90
3562;DHT22;1795;52.074;4.754;2023-03-08T06:11:07;0.80;99.90
3562;DHT22;1795;52.074;4.754;2023-03-08T06:13:36;0.80;99.90
3562;DHT22;1795;52.074;4.754;2023-03-08T06:16:05;0.80;99.90
3562;DHT22;1795;52.074;4.754;2023-03-08T06:18:37;0.80;99.90
3562;DHT22;1795;52.074;4.754;2023-03-08T06:21:07;0.80;99.90
3562;DHT22;1795;52.074;4.754;2023-03-08T06:23:35;0.80;99.90
3562;DHT22;1795;52.074;4.754;2023-03-08T06:26:04;0.90;99.90
3562;DHT22;1795;52.074;4.754;2023-03-08T06:28:33;0.90;99.90
3562;DHT22;1795;52.074;4.754;2023-03-08T06:31:01;0.90;99.90
3562;DHT22;1795;52.074;4.754;2023-03-08T06:33:31;0.90;99.90
3562;DHT22;1795;52.074;4.754;2023-03-08T06:36:02;0.90;99.90
3562;DHT22;1795;52.074;4.754;2023-03-08T06:38:33;0.90;99.90
3562;DHT22;1795;52.074;4.754;2023-03-08T06:41:02;0.90;99.90
3562;DHT22;1795;52.074;4.754;2023-03-08T06:43:30;0.90;99.90
3562;DHT22;1795;52.074;4.754;2023-03-08T06:46:01;0.90;99.90
3562;DHT22;1795;52.074;4.754;2023-03-08T06:48:29;0.90;99.90
3562;DHT22;1795;52.074;4.754;2023-03-08T06:50:57;1.00;99.90
3562;DHT22;1795;52.074;4.754;2023-03-08T06:53:27;1.00;99.90
3562;DHT22;1795;52.074;4.754;2023-03-08T06:55:55;1.00;99.90
3562;DHT22;1795;52.074;4.754;2023-03-08T06:58:23;1.00;99.90
3562;DHT22;1795;52.074;4.754;2023-03-08T07:00:51;1.00;99.90
3562;DHT22;1795;52.074;4.754;2023-03-08T07:03:21;1.00;99.90
3562;DHT22;1795;52.074;4.754;2023-03-08T07:05:49;1.00;99.90
3562;DHT22;1795;52.074;4.754;2023-03-08T07:08:17;1.00;99.90
3562;DHT22;1795;52.074;4.754;2023-03-08T07:10:46;1.00;99.90
3562;DHT22;1795;52.074;4.754;2023-03-08T07:13:14;1.00;99.90
3562;DHT22;1795;52.074;4.754;2023-03-08T07:15:43;1.00;99.90
3562;DHT22;1795;52.074;4.754;2023-03-08T07:18:11;1.00;99.90
3562;DHT22;1795;52.074;4.754;2023-03-08T07:20:41;1.00;99.90
3562;DHT22;1795;52.074;4.754;2023-03-08T07:23:09;1.10;99.90
3562;DHT22;1795;52.074;4.754;2023-03-08T07:25:38;1.00;99.90
3562;DHT22;1795;52.074;4.754;2023-03-08T07:28:08;1.00;99.90
3562;DHT22;1795;52.074;4.754;2023-03-08T07:30:35;1.10;99.90
3562;DHT22;1795;52.074;4.754;2023-03-08T07:33:03;1.10;99.90
3562;DHT22;1795;52.074;4.754;2023-03-08T07:35:31;1.10;99.90
3562;DHT22;1795;52.074;4.754;2023-03-08T07:38:00;1.10;99.90
3562;DHT22;1795;52.074;4.754;2023-03-08T07:40:27;1.10;99.90
3562;DHT22;1795;52.074;4.754;2023-03-08T07:42:55;1.10;99.90
3562;DHT22;1795;52.074;4.754;2023-03-08T07:45:25;1.10;99.90
3562;DHT22;1795;52.074;4.754;2023-03-08T07:47:53;1.10;99.90
3562;DHT22;1795;52.074;4.754;2023-03-08T07:50:21;1.20;99.90
3562;DHT22;1795;52.074;4.754;2023-03-08T07:52:49;1.10;99.90
3562;DHT22;1795;52.074;4.754;2023-03-08T07:55:17;1.20;99.90
3562;DHT22;1795;52.074;4.754;2023-03-08T07:57:45;1.20;99.90
3562;DHT22;1795;52.074;4.754;2023-03-08T08:00:13;1.20;99.90
3562;DHT22;1795;52.074;4.754;2023-03-08T08:02:43;1.20;99.90
3562;DHT22;1795;52.074;4.754;2023-03-08T08:05:11;1.20;99.90
3562;DHT22;1795;52.074;4.754;2023-03-08T08:07:39;1.20;99.90
3562;DHT22;1795;52.074;4.754;2023-03-08T08:10:08;1.20;99.90
3562;DHT22;1795;52.074;4.754;2023-03-08T08:12:36;1.20;99.90
3562;DHT22;1795;52.074;4.754;2023-03-08T08:15:05;1.20;99.90
3562;DHT22;1795;52.074;4.754;2023-03-08T08:17:33;1.20;99.90
3562;DHT22;1795;52.074;4.754;2023-03-08T08:20:03;1.30;99.90
3562;DHT22;1795;52.074;4.754;2023-03-08T08:22:34;1.30;99.90
3562;DHT22;1795;52.074;4.754;2023-03-08T08:25:03;1.30;99.90
3562;DHT22;1795;52.074;4.754;2023-03-08T08:27:31;1.30;99.90
3562;DHT22;1795;52.074;4.754;2023-03-08T08:29:59;1.30;99.90
3562;DHT22;1795;52.074;4.754;2023-03-08T08:32:27;1.30;99.90
3562;DHT22;1795;52.074;4.754;2023-03-08T08:34:55;1.30;99.90
3562;DHT22;1795;52.074;4.754;2023-03-08T08:37:28;1.40;99.90
3562;DHT22;1795;52.074;4.754;2023-03-08T08:39:56;1.40;99.90
3562;DHT22;1795;52.074;4.754;2023-03-08T08:42:25;1.40;99.90
3562;DHT22;1795;52.074;4.754;2023-03-08T08:44:53;1.40;99.90
3562;DHT22;1795;52.074;4.754;2023-03-08T08:47:21;1.40;99.90
3562;DHT22;1795;52.074;4.754;2023-03-08T08:49:51;1.50;99.90
3562;DHT22;1795;52.074;4.754;2023-03-08T08:52:19;1.50;99.90
3562;DHT22;1795;52.074;4.754;2023-03-08T08:54:48;1.50;99.90
3562;DHT22;1795;52.074;4.754;2023-03-08T08:57:16;1.50;99.90
3562;DHT22;1795;52.074;4.754;2023-03-08T08:59:45;1.60;99.90
3562;DHT22;1795;52.074;4.754;2023-03-08T09:02:13;1.60;99.90
3562;DHT22;1795;52.074;4.754;2023-03-08T09:04:41;1.60;99.90
3562;DHT22;1795;52.074;4.754;2023-03-08T09:07:10;1.60;99.90
3562;DHT22;1795;52.074;4.754;2023-03-08T09:09:38;1.60;99.90
3562;DHT22;1795;52.074;4.754;2023-03-08T09:12:07;1.70;99.90
3562;DHT22;1795;52.074;4.754;2023-03-08T09:14:36;1.70;99.90
3562;DHT22;1795;52.074;4.754;2023-03-08T09:17:04;1.70;99.90
3562;DHT22;1795;52.074;4.754;2023-03-08T09:19:33;1.80;99.90
3562;DHT22;1795;52.074;4.754;2023-03-08T09:22:02;1.80;99.90
3562;DHT22;1795;52.074;4.754;2023-03-08T09:24:30;1.90;99.90
3562;DHT22;1795;52.074;4.754;2023-03-08T09:26:58;1.90;99.90
3562;DHT22;1795;52.074;4.754;2023-03-08T09:29:28;1.90;99.90
3562;DHT22;1795;52.074;4.754;2023-03-08T09:31:56;1.90;99.90
3562;DHT22;1795;52.074;4.754;2023-03-08T09:34:25;2.00;99.90
3562;DHT22;1795;52.074;4.754;2023-03-08T09:36:53;2.00;99.90
3562;DHT22;1795;52.074;4.754;2023-03-08T09:39:21;2.00;99.90
3562;DHT22;1795;52.074;4.754;2023-03-08T09:41:52;2.00;99.90
3562;DHT22;1795;52.074;4.754;2023-03-08T09:47:35;2.10;99.90
3562;DHT22;1795;52.074;4.754;2023-03-08T09:50:17;2.10;99.90
3562;DHT22;1795;52.074;4.754;2023-03-08T09:52:48;2.20;99.90
3562;DHT22;1795;52.074;4.754;2023-03-08T09:55:19;2.20;99.90
3562;DHT22;1795;52.074;4.754;2023-03-08T09:57:53;2.30;99.90
3562;DHT22;1795;52.074;4.754;2023-03-08T10:00:27;2.30;99.90
3562;DHT22;1795;52.074;4.754;2023-03-08T10:03:08;2.40;99.90
3562;DHT22;1795;52.074;4.754;2023-03-08T10:05:41;2.40;99.90
3562;DHT22;1795;52.074;4.754;2023-03-08T10:08:13;2.40;99.90
3562;DHT22;1795;52.074;4.754;2023-03-08T10:10:48;2.40;99.90
3562;DHT22;1795;52.074;4.754;2023-03-08T10:13:33;2.50;99.90
3562;DHT22;1795;52.074;4.754;2023-03-08T10:16:10;2.50;99.90
3562;DHT22;1795;52.074;4.754;2023-03-08T10:18:45;2.60;99.90
3562;DHT22;1795;52.074;4.754;2023-03-08T10:21:17;2.60;99.90
3562;DHT22;1795;52.074;4.754;2023-03-08T10:23:47;2.70;99.90
3562;DHT22;1795;52.074;4.754;2023-03-08T10:26:18;2.70;99.90
3562;DHT22;1795;52.074;4.754;2023-03-08T10:28:46;2.70;99.90
3562;DHT22;1795;52.074;4.754;2023-03-08T10:31:20;2.70;99.90
3562;DHT22;1795;52.074;4.754;2023-03-08T10:33:54;2.80;99.90
3562;DHT22;1795;52.074;4.754;2023-03-08T10:36:24;2.80;99.90
3562;DHT22;1795;52.074;4.754;2023-03-08T10:38:58;2.90;99.90
3562;DHT22;1795;52.074;4.754;2023-03-08T10:41:29;2.90;99.90
3562;DHT22;1795;52.074;4.754;2023-03-08T10:43:58;2.90;99.90
3562;DHT22;1795;52.074;4.754;2023-03-08T10:46:28;3.00;99.90
3562;DHT22;1795;52.074;4.754;2023-03-08T10:49:14;3.00;99.90
3562;DHT22;1795;52.074;4.754;2023-03-08T10:51:52;3.00;99.90
3562;DHT22;1795;52.074;4.754;2023-03-08T10:54:20;3.10;99.90
3562;DHT22;1795;52.074;4.754;2023-03-08T10:56:54;3.20;99.90
3562;DHT22;1795;52.074;4.754;2023-03-08T10:59:26;3.20;99.90
3562;DHT22;1795;52.074;4.754;2023-03-08T11:02:00;3.20;99.90
3562;DHT22;1795;52.074;4.754;2023-03-08T11:04:30;3.30;99.90
3562;DHT22;1795;52.074;4.754;2023-03-08T11:07:09;3.30;99.90
3562;DHT22;1795;52.074;4.754;2023-03-08T11:09:37;3.40;99.90
3562;DHT22;1795;52.074;4.754;2023-03-08T11:12:05;3.40;99.90
3562;DHT22;1795;52.074;4.754;2023-03-08T11:14:33;3.40;99.90
3562;DHT22;1795;52.074;4.754;2023-03-08T11:17:13;3.50;99.90
3562;DHT22;1795;52.074;4.754;2023-03-08T11:19:51;3.50;99.90
3562;DHT22;1795;52.074;4.754;2023-03-08T11:22:36;3.60;99.90
3562;DHT22;1795;52.074;4.754;2023-03-08T11:25:13;3.60;99.90
3562;DHT22;1795;52.074;4.754;2023-03-08T11:27:56;3.60;99.90
3562;DHT22;1795;52.074;4.754;2023-03-08T11:30:34;3.70;99.90
3562;DHT22;1795;52.074;4.754;2023-03-08T11:33:32;3.70;99.90
3562;DHT22;1795;52.074;4.754;2023-03-08T11:36:11;3.70;99.90
3562;DHT22;1795;52.074;4.754;2023-03-08T11:38:41;3.80;99.90
3562;DHT22;1795;52.074;4.754;2023-03-08T11:41:17;3.80;99.90
3562;DHT22;1795;52.074;4.754;2023-03-08T11:44:07;3.80;99.90
3562;DHT22;1795;52.074;4.754;2023-03-08T11:46:46;3.80;99.90
3562;DHT22;1795;52.074;4.754;2023-03-08T11:49:29;3.90;99.90
3562;DHT22;1795;52.074;4.754;2023-03-08T11:52:10;3.90;99.90
3562;DHT22;1795;52.074;4.754;2023-03-08T11:54:53;3.90;99.90
3562;DHT22;1795;52.074;4.754;2023-03-08T11:57:24;4.00;99.90
3562;DHT22;1795;52.074;4.754;2023-03-08T11:59:56;4.00;99.90
3562;DHT22;1795;52.074;4.754;2023-03-08T12:02:28;4.00;99.90
3562;DHT22;1795;52.074;4.754;2023-03-08T12:05:00;4.10;99.90
3562;DHT22;1795;52.074;4.754;2023-03-08T12:07:35;4.10;99.90
3562;DHT22;1795;52.074;4.754;2023-03-08T12:10:13;4.20;99.90
3562;DHT22;1795;52.074;4.754;2023-03-08T12:12:47;4.20;99.90
3562;DHT22;1795;52.074;4.754;2023-03-08T12:15:24;4.20;99.90
3562;DHT22;1795;52.074;4.754;2023-03-08T12:17:58;4.30;99.90
3562;DHT22;1795;52.074;4.754;2023-03-08T12:20:33;4.30;99.90
3562;DHT22;1795;52.074;4.754;2023-03-08T12:23:12;4.40;99.90
3562;DHT22;1795;52.074;4.754;2023-03-08T12:25:48;4.40;99.90
3562;DHT22;1795;52.074;4.754;2023-03-08T12:28:19;4.40;99.90
3562;DHT22;1795;52.074;4.754;2023-03-08T12:31:01;4.50;99.90
3562;DHT22;1795;52.074;4.754;2023-03-08T12:33:38;4.50;99.90
3562;DHT22;1795;52.074;4.754;2023-03-08T12:36:07;4.50;99.90
3562;DHT22;1795;52.074;4.754;2023-03-08T12:38:38;4.50;99.90
3562;DHT22;1795;52.074;4.754;2023-03-08T12:41:22;4.60;99.90
3562;DHT22;1795;52.074;4.754;2023-03-08T12:44:01;4.60;99.90
3562;DHT22;1795;52.074;4.754;2023-03-08T12:46:45;4.60;99.90
3562;DHT22;1795;52.074;4.754;2023-03-08T12:49:31;4.60;99.90
3562;DHT22;1795;52.074;4.754;2023-03-08T12:52:03;4.60;99.90
3562;DHT22;1795;52.074;4.754;2023-03-08T12:54:34;4.60;99.90
3562;DHT22;1795;52.074;4.754;2023-03-08T12:57:14;4.60;99.90
3562;DHT22;1795;52.074;4.754;2023-03-08T12:59:43;4.60;99.90
3562;DHT22;1795;52.074;4.754;2023-03-08T13:02:26;4.70;99.90
3562;DHT22;1795;52.074;4.754;2023-03-08T13:05:18;4.70;99.90
3562;DHT22;1795;52.074;4.754;2023-03-08T13:08:02;4.70;99.90
3562;DHT22;1795;52.074;4.754;2023-03-08T13:10:35;4.70;99.90
3562;DHT22;1795;52.074;4.754;2023-03-08T13:13:18;4.70;99.90
3562;DHT22;1795;52.074;4.754;2023-03-08T13:19:05;4.70;99.90
3562;DHT22;1795;52.074;4.754;2023-03-08T13:21:39;4.70;99.90
3562;DHT22;1795;52.074;4.754;2023-03-08T13:24:18;4.70;99.90
3562;DHT22;1795;52.074;4.754;2023-03-08T13:26:58;4.70;99.90
3562;DHT22;1795;52.074;4.754;2023-03-08T13:29:32;4.70;99.90
3562;DHT22;1795;52.074;4.754;2023-03-08T13:32:04;4.80;99.90
3562;DHT22;1795;52.074;4.754;2023-03-08T13:34:34;4.80;99.90
3562;DHT22;1795;52.074;4.754;2023-03-08T13:37:02;4.80;99.90
3562;DHT22;1795;52.074;4.754;2023-03-08T13:39:31;4.80;99.90
3562;DHT22;1795;52.074;4.754;2023-03-08T13:42:08;4.80;99.90
3562;DHT22;1795;52.074;4.754;2023-03-08T13:44:36;4.80;99.90
3562;DHT22;1795;52.074;4.754;2023-03-08T13:47:18;4.80;99.90
3562;DHT22;1795;52.074;4.754;2023-03-08T13:49:48;4.80;99.90
3562;DHT22;1795;52.074;4.754;2023-03-08T13:52:20;4.80;99.90
3562;DHT22;1795;52.074;4.754;2023-03-08T13:54:52;4.80;99.90
3562;DHT22;1795;52.074;4.754;2023-03-08T13:57:23;4.80;99.90
3562;DHT22;1795;52.074;4.754;2023-03-08T13:59:54;4.80;99.90
3562;DHT22;1795;52.074;4.754;2023-03-08T14:02:24;4.80;99.90
3562;DHT22;1795;52.074;4.754;2023-03-08T14:04:52;4.80;99.90
3562;DHT22;1795;52.074;4.754;2023-03-08T14:07:25;4.80;99.90
3562;DHT22;1795;52.074;4.754;2023-03-08T14:09:53;4.70;99.90
3562;DHT22;1795;52.074;4.754;2023-03-08T14:12:25;4.80;99.90
3562;DHT22;1795;52.074;4.754;2023-03-08T14:14:58;4.80;99.90
3562;DHT22;1795;52.074;4.754;2023-03-08T14:17:29;4.80;99.90
3562;DHT22;1795;52.074;4.754;2023-03-08T14:20:00;4.80;99.90
3562;DHT22;1795;52.074;4.754;2023-03-08T14:22:38;4.80;99.90
3562;DHT22;1795;52.074;4.754;2023-03-08T14:25:24;4.80;99.90
3562;DHT22;1795;52.074;4.754;2023-03-08T14:27:54;4.80;99.90
3562;DHT22;1795;52.074;4.754;2023-03-08T14:30:23;4.70;99.90
3562;DHT22;1795;52.074;4.754;2023-03-08T14:32:58;4.70;99.90
3562;DHT22;1795;52.074;4.754;2023-03-08T14:35:28;4.70;99.90
3562;DHT22;1795;52.074;4.754;2023-03-08T14:37:57;4.70;99.90
3562;DHT22;1795;52.074;4.754;2023-03-08T14:40:28;4.70;99.90
3562;DHT22;1795;52.074;4.754;2023-03-08T14:42:59;4.70;99.90
3562;DHT22;1795;52.074;4.754;2023-03-08T14:45:35;4.70;99.90
3562;DHT22;1795;52.074;4.754;2023-03-08T14:48:21;4.70;99.90
3562;DHT22;1795;52.074;4.754;2023-03-08T14:50:52;4.70;99.90
3562;DHT22;1795;52.074;4.754;2023-03-08T14:53:39;4.70;99.90
3562;DHT22;1795;52.074;4.754;2023-03-08T14:56:11;4.70;99.90
3562;DHT22;1795;52.074;4.754;2023-03-08T14:58:43;4.70;99.90
3562;DHT22;1795;52.074;4.754;2023-03-08T15:01:22;4.70;99.90
3562;DHT22;1795;52.074;4.754;2023-03-08T15:03:51;4.70;99.90
3562;DHT22;1795;52.074;4.754;2023-03-08T15:06:21;4.70;99.90
3562;DHT22;1795;52.074;4.754;2023-03-08T15:08:49;4.60;99.90
3562;DHT22;1795;52.074;4.754;2023-03-08T15:11:18;4.60;99.90
3562;DHT22;1795;52.074;4.754;2023-03-08T15:13:48;4.60;99.90
3562;DHT22;1795;52.074;4.754;2023-03-08T15:16:16;4.60;99.90
3562;DHT22;1795;52.074;4.754;2023-03-08T15:18:44;4.60;99.90
3562;DHT22;1795;52.074;4.754;2023-03-08T15:21:13;4.60;99.90
3562;DHT22;1795;52.074;4.754;2023-03-08T15:23:42;4.60;99.90
3562;DHT22;1795;52.074;4.754;2023-03-08T15:26:16;4.60;99.90
3562;DHT22;1795;52.074;4.754;2023-03-08T15:28:47;4.50;99.90
3562;DHT22;1795;52.074;4.754;2023-03-08T15:31:16;4.50;99.90
3562;DHT22;1795;52.074;4.754;2023-03-08T15:33:44;4.50;99.90
3562;DHT22;1795;52.074;4.754;2023-03-08T15:36:13;4.50;99.90
3562;DHT22;1795;52.074;4.754;2023-03-08T15:38:41;4.50;99.90
3562;DHT22;1795;52.074;4.754;2023-03-08T15:41:10;4.50;99.90
3562;DHT22;1795;52.074;4.754;2023-03-08T15:43:38;4.40;99.90
3562;DHT22;1795;52.074;4.754;2023-03-08T15:46:10;4.50;99.90
3562;DHT22;1795;52.074;4.754;2023-03-08T15:48:38;4.40;99.90
3562;DHT22;1795;52.074;4.754;2023-03-08T15:51:14;4.40;99.90
3562;DHT22;1795;52.074;4.754;2023-03-08T15:53:43;4.40;99.90
3562;DHT22;1795;52.074;4.754;2023-03-08T15:56:11;4.40;99.90
3562;DHT22;1795;52.074;4.754;2023-03-08T15:58:39;4.40;99.90
3562;DHT22;1795;52.074;4.754;2023-03-08T16:01:08;4.30;99.90
3562;DHT22;1795;52.074;4.754;2023-03-08T16:03:37;4.30;99.90
3562;DHT22;1795;52.074;4.754;2023-03-08T16:06:08;4.30;99.90
3562;DHT22;1795;52.074;4.754;2023-03-08T16:08:36;4.30;99.90
3562;DHT22;1795;52.074;4.754;2023-03-08T16:11:05;4.30;99.90
3562;DHT22;1795;52.074;4.754;2023-03-08T16:13:33;4.20;99.90
3562;DHT22;1795;52.074;4.754;2023-03-08T16:16:03;4.30;99.90
3562;DHT22;1795;52.074;4.754;2023-03-08T16:18:33;4.20;99.90
3562;DHT22;1795;52.074;4.754;2023-03-08T16:21:05;4.20;99.90
3562;DHT22;1795;52.074;4.754;2023-03-08T16:23:34;4.20;99.90
3562;DHT22;1795;52.074;4.754;2023-03-08T16:26:04;4.20;99.90
3562;DHT22;1795;52.074;4.754;2023-03-08T16:28:42;4.20;99.90
3562;DHT22;1795;52.074;4.754;2023-03-08T16:31:11;4.10;99.90
3562;DHT22;1795;52.074;4.754;2023-03-08T16:33:40;4.10;99.90
3562;DHT22;1795;52.074;4.754;2023-03-08T16:36:10;4.10;99.90
3562;DHT22;1795;52.074;4.754;2023-03-08T16:38:38;4.10;99.90
3562;DHT22;1795;52.074;4.754;2023-03-08T16:41:07;4.10;99.90
3562;DHT22;1795;52.074;4.754;2023-03-08T16:43:39;4.10;99.90
3562;DHT22;1795;52.074;4.754;2023-03-08T16:46:17;4.00;99.90